Time,TemperatureF,DewpointF,PressureIn,WindDirection,WindDirectionDegrees,WindSpeedMPH,WindSpeedGustMPH,Humidity,HourlyPrecipIn,Conditions,Clouds,dailyrainin,SoftwareType,DateUTC
2014-01-18 00:06:00,68.0,64.6,29.89,West,270,2.7,-999.0,89,-99.99,,,0.00,Acu-Link.com,2014-01-18 10:06:00,
2014-01-18 00:21:00,67.8,64.8,29.90,WSW,247,2.7,-999.0,90,-99.99,,,0.00,Acu-Link.com,2014-01-18 10:21:00,
2014-01-18 00:36:00,67.6,64.9,29.89,WSW,247,1.7,-999.0,91,-99.99,,,0.00,Acu-Link.com,2014-01-18 10:36:00,
2014-01-18 00:51:00,67.3,64.6,29.89,WNW,292,2.2,-999.0,91,-99.99,,,0.00,Acu-Link.com,2014-01-18 10:51:00,
2014-01-18 01:06:00,67.3,64.9,29.89,SSW,202,3.2,-999.0,92,-99.99,,,0.00,Acu-Link.com,2014-01-18 11:06:00,
2014-01-18 01:21:00,67.3,64.9,29.89,WNW,292,2.7,-999.0,92,-99.99,,,0.00,Acu-Link.com,2014-01-18 11:21:00,
2014-01-18 01:36:00,67.3,64.6,29.89,West,270,2.7,-999.0,91,-99.99,,,0.00,Acu-Link.com,2014-01-18 11:36:00,
2014-01-18 01:51:00,67.3,64.6,29.89,NNE,22,3.2,-999.0,91,-99.99,,,0.00,Acu-Link.com,2014-01-18 11:51:00,
2014-01-18 02:07:00,67.3,64.6,29.89,WSW,247,3.2,-999.0,91,-99.99,,,0.00,Acu-Link.com,2014-01-18 12:07:00,
2014-01-18 02:22:00,67.1,64.7,29.89,ESE,112,2.2,-999.0,92,-99.99,,,0.00,Acu-Link.com,2014-01-18 12:22:00,
2014-01-18 02:37:00,67.1,65.0,29.88,West,270,2.7,-999.0,93,-99.99,,,0.00,Acu-Link.com,2014-01-18 12:37:00,
2014-01-18 02:52:00,67.5,64.5,29.88,West,270,2.7,-999.0,90,-99.99,,,0.00,Acu-Link.com,2014-01-18 12:52:00,
2014-01-18 03:07:00,67.3,64.3,29.89,West,270,2.2,-999.0,90,-99.99,,,0.00,Acu-Link.com,2014-01-18 13:07:00,
2014-01-18 03:22:00,67.1,64.1,29.89,North,0,1.1,-999.0,90,-99.99,,,0.00,Acu-Link.com,2014-01-18 13:22:00,
2014-01-18 03:37:00,66.9,63.5,29.89,SE,135,2.2,-999.0,89,-99.99,,,0.00,Acu-Link.com,2014-01-18 13:37:00,
2014-01-18 03:52:00,66.7,63.4,29.89,WNW,292,2.7,-999.0,89,-99.99,,,0.00,Acu-Link.com,2014-01-18 13:52:00,
2014-01-18 04:07:00,66.4,63.1,29.89,WNW,292,1.7,-999.0,89,-99.99,,,0.00,Acu-Link.com,2014-01-18 14:07:00,
2014-01-18 04:23:00,65.8,62.8,29.89,West,270,2.2,-999.0,90,-99.99,,,0.00,Acu-Link.com,2014-01-18 14:23:00,
2014-01-18 04:38:00,65.7,63.0,29.89,NNW,337,2.7,-999.0,91,-99.99,,,0.00,Acu-Link.com,2014-01-18 14:38:00,
2014-01-18 04:53:00,65.8,63.1,29.89,WNW,292,3.2,-999.0,91,-99.99,,,0.00,Acu-Link.com,2014-01-18 14:53:00,
2014-01-18 05:08:00,65.5,62.8,29.89,West,270,1.7,-999.0,91,-99.99,,,0.00,Acu-Link.com,2014-01-18 15:08:00,
2014-01-18 05:23:00,65.5,62.5,29.88,West,270,2.2,-999.0,90,-99.99,,,0.00,Acu-Link.com,2014-01-18 15:23:00,
2014-01-18 05:38:00,65.8,62.5,29.88,WNW,292,3.2,-999.0,89,-99.99,,,0.00,Acu-Link.com,2014-01-18 15:38:00,
2014-01-18 05:53:00,66.6,62.6,29.89,WSW,247,2.7,-999.0,87,-99.99,,,0.00,Acu-Link.com,2014-01-18 15:53:00,
2014-01-18 06:08:00,66.6,62.9,29.89,WNW,292,2.2,-999.0,88,-99.99,,,0.00,Acu-Link.com,2014-01-18 16:08:00,
2014-01-18 06:23:00,66.7,62.7,29.90,East,90,1.7,-999.0,87,-99.99,,,0.00,Acu-Link.com,2014-01-18 16:23:00,
2014-01-18 06:39:00,66.9,62.9,29.90,NW,315,2.7,-999.0,87,-99.99,,,0.00,Acu-Link.com,2014-01-18 16:39:00,
2014-01-18 06:54:00,66.9,62.9,29.90,WNW,292,3.7,-999.0,87,-99.99,,,0.00,Acu-Link.com,2014-01-18 16:54:00,
2014-01-18 07:09:00,67.5,63.2,29.91,SW,225,3.2,-999.0,86,-99.99,,,0.00,Acu-Link.com,2014-01-18 17:09:00,
2014-01-18 07:24:00,68.2,63.5,29.91,NW,315,5.3,-999.0,85,-99.99,,,0.00,Acu-Link.com,2014-01-18 17:24:00,
2014-01-18 07:39:00,70.2,64.8,29.92,WNW,292,2.7,-999.0,83,-99.99,,,0.00,Acu-Link.com,2014-01-18 17:39:00,
2014-01-18 07:54:00,72.5,65.2,29.92,WNW,292,3.2,-999.0,78,-99.99,,,0.00,Acu-Link.com,2014-01-18 17:54:00,
2014-01-18 08:09:00,74.1,65.3,29.93,NNW,337,4.2,-999.0,74,-99.99,,,0.00,Acu-Link.com,2014-01-18 18:09:00,
2014-01-18 08:24:00,75.2,65.1,29.93,NNW,337,3.2,-999.0,71,-99.99,,,0.00,Acu-Link.com,2014-01-18 18:24:00,
2014-01-18 08:39:00,75.0,65.3,29.94,WNW,292,4.2,-999.0,72,-99.99,,,0.00,Acu-Link.com,2014-01-18 18:39:00,
2014-01-18 08:55:00,76.1,66.0,29.93,NW,315,3.2,-999.0,71,-99.99,,,0.00,Acu-Link.com,2014-01-18 18:55:00,
2014-01-18 09:10:00,77.5,66.9,29.93,North,0,3.2,-999.0,70,-99.99,,,0.00,Acu-Link.com,2014-01-18 19:10:00,
2014-01-18 09:25:00,77.7,66.3,29.93,East,90,2.2,-999.0,68,-99.99,,,0.00,Acu-Link.com,2014-01-18 19:25:00,
2014-01-18 09:40:00,78.4,66.1,29.93,NNW,337,3.2,-999.0,66,-99.99,,,0.00,Acu-Link.com,2014-01-18 19:40:00,
2014-01-18 09:55:00,78.6,64.9,29.93,NNE,22,5.3,-999.0,63,-99.99,,,0.00,Acu-Link.com,2014-01-18 19:55:00,
2014-01-18 10:10:00,79.2,66.0,29.93,NE,45,3.2,-999.0,64,-99.99,,,0.00,Acu-Link.com,2014-01-18 20:10:00,
2014-01-18 10:25:00,79.7,64.6,29.94,ENE,67,6.8,-999.0,60,-99.99,,,0.00,Acu-Link.com,2014-01-18 20:25:00,
2014-01-18 10:40:00,80.1,64.5,29.93,NE,45,4.2,-999.0,59,-99.99,,,0.00,Acu-Link.com,2014-01-18 20:40:00,
2014-01-18 10:55:00,79.7,63.1,29.92,North,0,7.8,-999.0,57,-99.99,,,0.00,Acu-Link.com,2014-01-18 20:55:00,
2014-01-18 11:11:00,81.1,64.4,29.92,SSE,157,3.2,-999.0,57,-99.99,,,0.00,Acu-Link.com,2014-01-18 21:11:00,
2014-01-18 11:26:00,81.1,63.9,29.91,North,0,3.2,-999.0,56,-99.99,,,0.00,Acu-Link.com,2014-01-18 21:26:00,
2014-01-18 11:41:00,81.7,63.4,29.90,NNE,22,4.2,-999.0,54,-99.99,,,0.00,Acu-Link.com,2014-01-18 21:41:00,
2014-01-18 11:56:00,81.9,62.5,29.89,NNW,337,7.3,-999.0,52,-99.99,,,0.00,Acu-Link.com,2014-01-18 21:56:00,
2014-01-18 12:11:00,82.8,61.7,29.88,NNE,22,4.2,-999.0,49,-99.99,,,0.00,Acu-Link.com,2014-01-18 22:11:00,
2014-01-18 12:26:00,82.6,60.9,29.87,ESE,112,7.8,-999.0,48,-99.99,,,0.00,Acu-Link.com,2014-01-18 22:26:00,
2014-01-18 12:41:00,82.4,61.3,29.85,NNE,22,4.2,-999.0,49,-99.99,,,0.00,Acu-Link.com,2014-01-18 22:41:00,
2014-01-18 12:56:00,81.9,63.1,29.85,East,90,5.8,-999.0,53,-99.99,,,0.00,Acu-Link.com,2014-01-18 22:56:00,
2014-01-18 13:11:00,81.5,63.2,29.84,NW,315,3.7,-999.0,54,-99.99,,,0.00,Acu-Link.com,2014-01-18 23:11:00,
2014-01-18 13:27:00,81.5,63.2,29.83,NNE,22,2.7,-999.0,54,-99.99,,,0.00,Acu-Link.com,2014-01-18 23:27:00,
2014-01-18 13:42:00,81.9,63.1,29.82,North,0,6.3,-999.0,53,-99.99,,,0.00,Acu-Link.com,2014-01-18 23:42:00,
2014-01-18 13:57:00,81.9,64.1,29.82,East,90,4.2,-999.0,55,-99.99,,,0.00,Acu-Link.com,2014-01-18 23:57:00,
2014-01-18 14:12:00,81.5,64.8,29.81,NNE,22,5.3,-999.0,57,-99.99,,,0.00,Acu-Link.com,2014-01-19 00:12:00,
2014-01-18 14:27:00,80.6,65.4,29.81,NE,45,5.8,-999.0,60,-99.99,,,0.00,Acu-Link.com,2014-01-19 00:27:00,
2014-01-18 14:42:00,80.2,65.5,29.81,NE,45,4.7,-999.0,61,-99.99,,,0.00,Acu-Link.com,2014-01-19 00:42:00,
2014-01-18 14:57:00,79.7,66.4,29.81,North,0,6.8,-999.0,64,-99.99,,,0.00,Acu-Link.com,2014-01-19 00:57:00,
2014-01-18 15:12:00,78.8,65.6,29.80,North,0,5.3,-999.0,64,-99.99,,,0.00,Acu-Link.com,2014-01-19 01:12:00,
2014-01-18 15:27:00,78.3,66.4,29.80,NNE,22,3.7,-999.0,67,-99.99,,,0.00,Acu-Link.com,2014-01-19 01:27:00,
2014-01-18 15:43:00,78.3,66.0,29.80,NNW,337,4.2,-999.0,66,-99.99,,,0.00,Acu-Link.com,2014-01-19 01:43:00,
2014-01-18 15:58:00,77.7,65.9,29.81,WNW,292,4.2,-999.0,67,-99.99,,,0.00,Acu-Link.com,2014-01-19 01:58:00,
2014-01-18 16:13:00,76.8,66.3,29.82,North,0,6.3,-999.0,70,-99.99,,,0.00,Acu-Link.com,2014-01-19 02:13:00,
2014-01-18 16:28:00,76.6,66.1,29.82,NNW,337,3.7,-999.0,70,-99.99,,,0.00,Acu-Link.com,2014-01-19 02:28:00,
2014-01-18 16:43:00,76.3,66.6,29.82,NE,45,4.2,-999.0,72,-99.99,,,0.00,Acu-Link.com,2014-01-19 02:43:00,
2014-01-18 16:58:00,76.1,66.8,29.83,North,0,3.7,-999.0,73,-99.99,,,0.00,Acu-Link.com,2014-01-19 02:58:00,
2014-01-18 17:13:00,75.9,67.0,29.83,NNW,337,4.2,-999.0,74,-99.99,,,0.00,Acu-Link.com,2014-01-19 03:13:00,
2014-01-18 17:28:00,75.4,67.3,29.84,North,0,4.7,-999.0,76,-99.99,,,0.00,Acu-Link.com,2014-01-19 03:28:00,
2014-01-18 17:43:00,74.8,67.1,29.84,NNW,337,4.2,-999.0,77,-99.99,,,0.00,Acu-Link.com,2014-01-19 03:43:00,
2014-01-18 17:59:00,74.1,67.2,29.84,West,270,2.2,-999.0,79,-99.99,,,0.00,Acu-Link.com,2014-01-19 03:59:00,
2014-01-18 18:14:00,73.6,67.0,29.84,SSW,202,2.2,-999.0,80,-99.99,,,0.00,Acu-Link.com,2014-01-19 04:14:00,
2014-01-18 18:29:00,73.2,67.0,29.85,WNW,292,3.2,-999.0,81,-99.99,,,0.00,Acu-Link.com,2014-01-19 04:29:00,
2014-01-18 18:44:00,72.9,66.7,29.86,NNW,337,2.7,-999.0,81,-99.99,,,0.00,Acu-Link.com,2014-01-19 04:44:00,
2014-01-18 18:59:00,72.7,65.8,29.86,SE,135,2.7,-999.0,79,-99.99,,,0.00,Acu-Link.com,2014-01-19 04:59:00,
2014-01-18 19:14:00,72.7,65.8,29.87,West,270,2.2,-999.0,79,-99.99,,,0.00,Acu-Link.com,2014-01-19 05:14:00,
2014-01-18 19:29:00,72.7,66.5,29.86,NNW,337,1.7,-999.0,81,-99.99,,,0.00,Acu-Link.com,2014-01-19 05:29:00,
2014-01-18 19:45:00,72.5,66.3,29.87,WNW,292,5.8,-999.0,81,-99.99,,,0.00,Acu-Link.com,2014-01-19 05:45:00,
2014-01-18 20:00:00,72.7,66.2,29.87,NNW,337,2.7,-999.0,80,-99.99,,,0.00,Acu-Link.com,2014-01-19 06:00:00,
2014-01-18 20:15:00,72.9,66.4,29.87,NNW,337,5.8,-999.0,80,-99.99,,,0.00,Acu-Link.com,2014-01-19 06:15:00,
2014-01-18 20:30:00,72.5,66.3,29.88,West,270,3.2,-999.0,81,-99.99,,,0.00,Acu-Link.com,2014-01-19 06:30:00,
2014-01-18 20:45:00,72.0,66.5,29.88,WSW,247,2.7,-999.0,83,-99.99,,,0.00,Acu-Link.com,2014-01-19 06:45:00,
2014-01-18 21:00:00,72.0,66.5,29.88,SSW,202,3.2,-999.0,83,-99.99,,,0.00,Acu-Link.com,2014-01-19 07:00:00,
2014-01-18 21:15:00,71.8,66.3,29.87,NW,315,4.2,-999.0,83,-99.99,,,0.00,Acu-Link.com,2014-01-19 07:15:00,
2014-01-18 21:30:00,71.6,66.2,29.88,NW,315,3.7,-999.0,83,-99.99,,,0.00,Acu-Link.com,2014-01-19 07:30:00,
2014-01-18 21:45:00,71.2,66.5,29.87,North,0,3.7,-999.0,85,-99.99,,,0.00,Acu-Link.com,2014-01-19 07:45:00,
2014-01-18 22:01:00,71.2,66.5,29.87,WNW,292,2.7,-999.0,85,-99.99,,,0.00,Acu-Link.com,2014-01-19 08:01:00,
2014-01-18 22:16:00,71.1,66.4,29.87,ENE,67,3.7,-999.0,85,-99.99,,,0.00,Acu-Link.com,2014-01-19 08:16:00,
2014-01-18 22:31:00,70.7,66.3,29.87,WNW,292,3.7,-999.0,86,-99.99,,,0.00,Acu-Link.com,2014-01-19 08:31:00,
2014-01-18 22:46:00,70.5,66.4,29.86,SSE,157,2.2,-999.0,87,-99.99,,,0.00,Acu-Link.com,2014-01-19 08:46:00,
2014-01-18 23:01:00,70.5,66.4,29.86,NW,315,3.7,-999.0,87,-99.99,,,0.00,Acu-Link.com,2014-01-19 09:01:00,
2014-01-18 23:16:00,70.7,66.6,29.86,NW,315,2.7,-999.0,87,-99.99,,,0.00,Acu-Link.com,2014-01-19 09:16:00,
2014-01-18 23:31:00,70.0,66.3,29.85,WNW,292,2.2,-999.0,88,-99.99,,,0.00,Acu-Link.com,2014-01-19 09:31:00,
2014-01-18 23:46:00,69.4,66.0,29.82,West,270,2.7,-999.0,89,-99.99,,,0.00,Acu-Link.com,2014-01-19 09:46:00,